TRA88R EHAM-LEAL
Flight info
| Callsign | TRA88R |
|---|---|
| Flight time | 2h 20m |
| Altitude | 36000 |
| Route | WOODY N872 CIV DCT KOVIN DCT DUCRA UM728 RESMI UN857 DISAK DCT DIRMO DCT GUERE DCT EVPOK DCT AGN DCT ANETO DCT POSSY DCT XIMPE DCT RIMES DCT SAURA DCT TATOS DCT PLANA DCT VLC |
| Aircraft | B738/M-SDE2E3FGHIRWXY/LB1 |
Departure
| Time | 2026-05-04 12:18 |
|---|---|
| Airport | Amsterdam Airport Schiphol (EHAM) |
Arrival
| Time | 2026-05-04 14:38 |
|---|---|
| Airport | Alicante-Elche Miguel Hernández Airport (LEAL) |
| Time | Latitude | Longitude | Altitude | Speed | Heading |
|---|---|---|---|---|---|
| 2026-05-04 11:26 | 52.30705 | 4.77155 | -2 ft | 0 kts | 2° |
| 2026-05-04 11:56 | 52.30636 | 4.77150 | 0 ft | 24 kts | 2° |
| 2026-05-04 11:56 | 52.30615 | 4.77149 | -2 ft | 0 kts | 2° |
| 2026-05-04 11:56 | 52.30709 | 4.77156 | -2 ft | 0 kts | 2° |
| 2026-05-04 12:08 | 52.30703 | 4.77155 | -2 ft | 4 kts | 4° |
| 2026-05-04 12:08 | 52.30676 | 4.77148 | -2 ft | 4 kts | 21° |
| 2026-05-04 12:08 | 52.30655 | 4.77127 | -2 ft | 4 kts | 58° |
| 2026-05-04 12:09 | 52.30650 | 4.77103 | -2 ft | 0 kts | 93° |
| 2026-05-04 12:14 | 52.30414 | 4.77634 | -2 ft | 0 kts | 237° |
| 2026-05-04 12:17 | 52.30409 | 4.77621 | -2 ft | 11 kts | 237° |
| 2026-05-04 12:17 | 52.30237 | 4.77174 | -4 ft | 81 kts | 238° |
| 2026-05-04 12:17 | 52.29824 | 4.76100 | -5 ft | 140 kts | 238° |
| 2026-05-04 12:18 | 52.29235 | 4.74565 | 240 ft | 168 kts | 239° |
| 2026-05-04 12:18 | 52.28589 | 4.72925 | 927 ft | 175 kts | 239° |
| 2026-05-04 12:18 | 52.27914 | 4.71237 | 1708 ft | 181 kts | 238° |
| 2026-05-04 12:18 | 52.27178 | 4.69479 | 2281 ft | 199 kts | 226° |
| 2026-05-04 12:19 | 52.25959 | 4.68343 | 2601 ft | 216 kts | 193° |
| 2026-05-04 12:19 | 52.24447 | 4.68520 | 3080 ft | 227 kts | 158° |
| 2026-05-04 12:19 | 52.23135 | 4.69977 | 3726 ft | 231 kts | 143° |
| 2026-05-04 12:19 | 52.21713 | 4.71288 | 4312 ft | 242 kts | 157° |
| 2026-05-04 12:20 | 52.20104 | 4.72468 | 4722 ft | 263 kts | 155° |
| 2026-05-04 12:20 | 52.18437 | 4.73771 | 5451 ft | 268 kts | 154° |
| 2026-05-04 12:20 | 52.16742 | 4.75034 | 6293 ft | 269 kts | 161° |
| 2026-05-04 12:20 | 52.14919 | 4.75792 | 7088 ft | 270 kts | 169° |
| 2026-05-04 12:21 | 52.13070 | 4.76404 | 7873 ft | 273 kts | 169° |
| 2026-05-04 12:21 | 52.11182 | 4.77072 | 8569 ft | 280 kts | 168° |
| 2026-05-04 12:21 | 52.09268 | 4.77776 | 9311 ft | 284 kts | 168° |
| 2026-05-04 12:21 | 52.07332 | 4.78508 | 10058 ft | 288 kts | 168° |
| 2026-05-04 12:22 | 52.05342 | 4.79272 | 10487 ft | 304 kts | 168° |
| 2026-05-04 12:22 | 52.03203 | 4.80093 | 10646 ft | 327 kts | 168° |
| 2026-05-04 12:22 | 52.00944 | 4.80960 | 10810 ft | 348 kts | 169° |
| 2026-05-04 12:22 | 51.98472 | 4.81170 | 10936 ft | 365 kts | 191° |
| 2026-05-04 12:23 | 51.96052 | 4.79758 | 11310 ft | 374 kts | 207° |
| 2026-05-04 12:23 | 51.93714 | 4.77853 | 11902 ft | 379 kts | 207° |
| 2026-05-04 12:23 | 51.91340 | 4.75925 | 12465 ft | 384 kts | 207° |
| 2026-05-04 12:23 | 51.88934 | 4.74012 | 13112 ft | 387 kts | 206° |
| 2026-05-04 12:24 | 51.86502 | 4.72105 | 13771 ft | 390 kts | 206° |
| 2026-05-04 12:24 | 51.84045 | 4.70189 | 14323 ft | 393 kts | 206° |
| 2026-05-04 12:24 | 51.81566 | 4.68260 | 14897 ft | 396 kts | 206° |
| 2026-05-04 12:24 | 51.79076 | 4.66325 | 15468 ft | 399 kts | 206° |
| 2026-05-04 12:25 | 51.76568 | 4.64376 | 16007 ft | 402 kts | 206° |
| 2026-05-04 12:25 | 51.74040 | 4.62413 | 16549 ft | 405 kts | 206° |
| 2026-05-04 12:25 | 51.71491 | 4.60435 | 17104 ft | 408 kts | 206° |
| 2026-05-04 12:25 | 51.68908 | 4.58434 | 17610 ft | 413 kts | 206° |
| 2026-05-04 12:26 | 51.66306 | 4.56421 | 18123 ft | 416 kts | 206° |
| 2026-05-04 12:26 | 51.63720 | 4.54420 | 18603 ft | 418 kts | 206° |
| 2026-05-04 12:26 | 51.61093 | 4.52387 | 19107 ft | 419 kts | 206° |
| 2026-05-04 12:26 | 51.58465 | 4.50354 | 19624 ft | 420 kts | 206° |
| 2026-05-04 12:27 | 51.55821 | 4.48312 | 20119 ft | 421 kts | 206° |
| 2026-05-04 12:27 | 51.53174 | 4.46269 | 20591 ft | 422 kts | 206° |
| 2026-05-04 12:27 | 51.50516 | 4.44219 | 21080 ft | 424 kts | 206° |
| 2026-05-04 12:27 | 51.47848 | 4.42166 | 21545 ft | 426 kts | 206° |
| 2026-05-04 12:28 | 51.45171 | 4.40109 | 21955 ft | 428 kts | 206° |
| 2026-05-04 12:28 | 51.42479 | 4.38042 | 22398 ft | 429 kts | 206° |
| 2026-05-04 12:28 | 51.39785 | 4.35981 | 22849 ft | 429 kts | 206° |
| 2026-05-04 12:28 | 51.37071 | 4.33944 | 23273 ft | 431 kts | 205° |
| 2026-05-04 12:29 | 51.34386 | 4.31947 | 23646 ft | 432 kts | 205° |
| 2026-05-04 12:29 | 51.31619 | 4.29890 | 23963 ft | 434 kts | 205° |
| 2026-05-04 12:29 | 51.28919 | 4.27858 | 24281 ft | 435 kts | 206° |
| 2026-05-04 12:29 | 51.26183 | 4.25772 | 24615 ft | 436 kts | 206° |
| 2026-05-04 12:30 | 51.23442 | 4.23675 | 24890 ft | 438 kts | 206° |
| 2026-05-04 12:30 | 51.20689 | 4.21577 | 25186 ft | 439 kts | 206° |
| 2026-05-04 12:30 | 51.17923 | 4.19478 | 25495 ft | 440 kts | 205° |
| 2026-05-04 12:30 | 51.15121 | 4.17496 | 25796 ft | 441 kts | 201° |
| 2026-05-04 12:31 | 51.12220 | 4.15862 | 26092 ft | 442 kts | 199° |
| 2026-05-04 12:31 | 51.09293 | 4.14319 | 26373 ft | 443 kts | 199° |
| 2026-05-04 12:31 | 51.06365 | 4.12787 | 26731 ft | 442 kts | 199° |
| 2026-05-04 12:31 | 51.03450 | 4.11241 | 27195 ft | 439 kts | 199° |
| 2026-05-04 12:32 | 51.00604 | 4.09710 | 27691 ft | 435 kts | 199° |
| 2026-05-04 12:32 | 50.94914 | 4.06613 | 28570 ft | 430 kts | 199° |
| 2026-05-04 12:32 | 50.92090 | 4.05076 | 28974 ft | 429 kts | 199° |
| 2026-05-04 12:33 | 50.89274 | 4.03546 | 29399 ft | 426 kts | 199° |
| 2026-05-04 12:33 | 50.86483 | 4.01968 | 29838 ft | 424 kts | 201° |
| 2026-05-04 12:33 | 50.83749 | 4.00255 | 30236 ft | 421 kts | 202° |
| 2026-05-04 12:33 | 50.81043 | 3.98491 | 30564 ft | 420 kts | 202° |
| 2026-05-04 12:34 | 50.78339 | 3.96716 | 30797 ft | 421 kts | 202° |
| 2026-05-04 12:34 | 50.75627 | 3.94947 | 31062 ft | 421 kts | 202° |
| 2026-05-04 12:34 | 50.72928 | 3.93204 | 31418 ft | 418 kts | 202° |
| 2026-05-04 12:34 | 50.70239 | 3.91478 | 31788 ft | 415 kts | 202° |
| 2026-05-04 12:35 | 50.67598 | 3.89791 | 32104 ft | 414 kts | 202° |
| 2026-05-04 12:35 | 50.64897 | 3.88070 | 32381 ft | 414 kts | 202° |
| 2026-05-04 12:35 | 50.62265 | 3.86394 | 32673 ft | 413 kts | 202° |
| 2026-05-04 12:35 | 50.59605 | 3.84702 | 33000 ft | 411 kts | 202° |
| 2026-05-04 12:36 | 50.56957 | 3.83018 | 33299 ft | 409 kts | 203° |
| 2026-05-04 12:36 | 50.54333 | 3.81278 | 33574 ft | 408 kts | 204° |
| 2026-05-04 12:36 | 50.51728 | 3.79498 | 33870 ft | 407 kts | 204° |
| 2026-05-04 12:36 | 50.49140 | 3.77714 | 34138 ft | 406 kts | 204° |
| 2026-05-04 12:37 | 50.46553 | 3.75931 | 34267 ft | 408 kts | 204° |
| 2026-05-04 12:37 | 50.41324 | 3.72347 | 34561 ft | 409 kts | 204° |
| 2026-05-04 12:37 | 50.38713 | 3.70567 | 34744 ft | 410 kts | 204° |
| 2026-05-04 12:38 | 50.36095 | 3.68787 | 34879 ft | 411 kts | 203° |
| 2026-05-04 12:38 | 50.30801 | 3.65199 | 35055 ft | 416 kts | 203° |
| 2026-05-04 12:38 | 50.28183 | 3.63429 | 35261 ft | 415 kts | 203° |
| 2026-05-04 12:39 | 50.25529 | 3.61637 | 35405 ft | 416 kts | 203° |
| 2026-05-04 12:39 | 50.22868 | 3.59842 | 35519 ft | 417 kts | 203° |
| 2026-05-04 12:39 | 50.20203 | 3.58046 | 35675 ft | 418 kts | 203° |
| 2026-05-04 12:39 | 50.17533 | 3.56249 | 35823 ft | 418 kts | 204° |
| 2026-05-04 12:40 | 50.14851 | 3.54447 | 35945 ft | 419 kts | 204° |
| 2026-05-04 12:40 | 50.09467 | 3.50835 | 35980 ft | 422 kts | 203° |
| 2026-05-04 12:41 | 50.04071 | 3.47223 | 36014 ft | 422 kts | 203° |
| 2026-05-04 12:41 | 50.01374 | 3.45422 | 36172 ft | 422 kts | 203° |
| 2026-05-04 12:41 | 49.98677 | 3.43623 | 36366 ft | 421 kts | 203° |
| 2026-05-04 12:41 | 49.95987 | 3.41830 | 36522 ft | 421 kts | 203° |
| 2026-05-04 12:42 | 49.93293 | 3.40037 | 36640 ft | 422 kts | 203° |
| 2026-05-04 12:42 | 49.90590 | 3.38240 | 36754 ft | 423 kts | 204° |
| 2026-05-04 12:42 | 49.87888 | 3.36446 | 36893 ft | 423 kts | 204° |
| 2026-05-04 12:43 | 49.82495 | 3.32872 | 36974 ft | 426 kts | 204° |
| 2026-05-04 12:43 | 49.77046 | 3.29269 | 36984 ft | 425 kts | 204° |
| 2026-05-04 12:44 | 49.71611 | 3.25684 | 36983 ft | 425 kts | 204° |
| 2026-05-04 12:44 | 49.66168 | 3.22103 | 36983 ft | 424 kts | 204° |
| 2026-05-04 12:45 | 49.60737 | 3.18538 | 36969 ft | 424 kts | 204° |
| 2026-05-04 12:45 | 49.55310 | 3.14983 | 36975 ft | 423 kts | 203° |
| 2026-05-04 12:46 | 49.49880 | 3.11433 | 36963 ft | 424 kts | 204° |
| 2026-05-04 12:46 | 49.44833 | 3.06906 | 36980 ft | 422 kts | 213° |
| 2026-05-04 12:47 | 49.39950 | 3.01866 | 36984 ft | 422 kts | 213° |
| 2026-05-04 12:47 | 49.35057 | 2.96866 | 36984 ft | 422 kts | 213° |
| 2026-05-04 12:48 | 49.30163 | 2.91910 | 36969 ft | 422 kts | 213° |
| 2026-05-04 12:48 | 49.25254 | 2.86961 | 36971 ft | 422 kts | 213° |
| 2026-05-04 12:49 | 49.20385 | 2.82065 | 36965 ft | 421 kts | 213° |
| 2026-05-04 12:49 | 49.15477 | 2.77139 | 36967 ft | 421 kts | 213° |
| 2026-05-04 12:50 | 49.10577 | 2.72234 | 36974 ft | 421 kts | 213° |
| 2026-05-04 12:50 | 49.06501 | 2.68161 | 36960 ft | 421 kts | 213° |
| 2026-05-04 12:51 | 49.01596 | 2.63270 | 36987 ft | 421 kts | 212° |
| 2026-05-04 12:51 | 48.96679 | 2.58380 | 36970 ft | 422 kts | 212° |
| 2026-05-04 12:52 | 48.91752 | 2.53492 | 36967 ft | 423 kts | 212° |
| 2026-05-04 12:52 | 48.86820 | 2.48606 | 36974 ft | 424 kts | 212° |
| 2026-05-04 12:53 | 48.81874 | 2.43717 | 36971 ft | 425 kts | 212° |
| 2026-05-04 12:53 | 48.76944 | 2.38854 | 36956 ft | 424 kts | 212° |
| 2026-05-04 12:54 | 48.72005 | 2.33995 | 36956 ft | 421 kts | 212° |
| 2026-05-04 12:54 | 48.67102 | 2.29182 | 36966 ft | 419 kts | 212° |
| 2026-05-04 12:55 | 48.62214 | 2.24392 | 36966 ft | 418 kts | 212° |
| 2026-05-04 12:55 | 48.57226 | 2.19907 | 36958 ft | 417 kts | 204° |
| 2026-05-04 12:56 | 48.51671 | 2.17402 | 36983 ft | 418 kts | 192° |
| 2026-05-04 12:56 | 48.45946 | 2.15640 | 36982 ft | 420 kts | 192° |
| 2026-05-04 12:57 | 48.40241 | 2.13834 | 36967 ft | 422 kts | 193° |
| 2026-05-04 12:57 | 48.34486 | 2.11983 | 36965 ft | 424 kts | 193° |
| 2026-05-04 12:58 | 48.28657 | 2.10451 | 36950 ft | 427 kts | 184° |
| 2026-05-04 12:58 | 48.22705 | 2.11093 | 36974 ft | 431 kts | 173° |
| 2026-05-04 12:59 | 48.16775 | 2.12463 | 36965 ft | 432 kts | 174° |
| 2026-05-04 12:59 | 48.10817 | 2.13499 | 36962 ft | 429 kts | 179° |
| 2026-05-04 13:00 | 48.04849 | 2.13826 | 36958 ft | 428 kts | 180° |
| 2026-05-04 13:00 | 47.98936 | 2.14084 | 36970 ft | 427 kts | 180° |
| 2026-05-04 13:01 | 47.92996 | 2.14390 | 36962 ft | 426 kts | 180° |
| 2026-05-04 13:01 | 47.87077 | 2.14726 | 36969 ft | 425 kts | 180° |
| 2026-05-04 13:02 | 47.81172 | 2.15070 | 36943 ft | 424 kts | 180° |
| 2026-05-04 13:02 | 47.75278 | 2.15412 | 36941 ft | 423 kts | 180° |
| 2026-05-04 13:03 | 47.69387 | 2.15752 | 36937 ft | 423 kts | 180° |
| 2026-05-04 13:03 | 47.63538 | 2.16089 | 36941 ft | 423 kts | 180° |
| 2026-05-04 13:04 | 47.57651 | 2.16427 | 36935 ft | 423 kts | 180° |
| 2026-05-04 13:04 | 47.51755 | 2.16765 | 36942 ft | 424 kts | 180° |
| 2026-05-04 13:05 | 47.45847 | 2.17103 | 36954 ft | 425 kts | 180° |
| 2026-05-04 13:05 | 47.39920 | 2.17441 | 36931 ft | 426 kts | 180° |
| 2026-05-04 13:06 | 47.34032 | 2.17777 | 36934 ft | 426 kts | 180° |
| 2026-05-04 13:06 | 47.28101 | 2.18114 | 36936 ft | 427 kts | 180° |
| 2026-05-04 13:07 | 47.22165 | 2.18450 | 36942 ft | 427 kts | 180° |
| 2026-05-04 13:07 | 47.16224 | 2.18786 | 36932 ft | 428 kts | 180° |
| 2026-05-04 13:08 | 47.10275 | 2.19122 | 36942 ft | 427 kts | 180° |
| 2026-05-04 13:08 | 47.04351 | 2.18843 | 36949 ft | 425 kts | 187° |
| 2026-05-04 13:09 | 46.98497 | 2.18085 | 36940 ft | 425 kts | 187° |
| 2026-05-04 13:09 | 46.92607 | 2.17332 | 36936 ft | 425 kts | 187° |
| 2026-05-04 13:10 | 46.86720 | 2.16627 | 36939 ft | 424 kts | 187° |
| 2026-05-04 13:10 | 46.80823 | 2.15945 | 36935 ft | 424 kts | 187° |
| 2026-05-04 13:11 | 46.74937 | 2.15269 | 36941 ft | 424 kts | 187° |
| 2026-05-04 13:11 | 46.69061 | 2.14594 | 36935 ft | 423 kts | 187° |
| 2026-05-04 13:12 | 46.63186 | 2.13921 | 36937 ft | 423 kts | 187° |
| 2026-05-04 13:12 | 46.57310 | 2.13249 | 36938 ft | 423 kts | 187° |
| 2026-05-04 13:13 | 46.51444 | 2.12579 | 36936 ft | 423 kts | 187° |
| 2026-05-04 13:13 | 46.45620 | 2.11915 | 36940 ft | 423 kts | 187° |
| 2026-05-04 13:14 | 46.39753 | 2.11248 | 36950 ft | 423 kts | 187° |
| 2026-05-04 13:14 | 46.33872 | 2.10581 | 36938 ft | 424 kts | 187° |
| 2026-05-04 13:15 | 46.27985 | 2.09914 | 36933 ft | 423 kts | 187° |
| 2026-05-04 13:15 | 46.22126 | 2.09101 | 36928 ft | 421 kts | 194° |
| 2026-05-04 13:16 | 46.16685 | 2.06331 | 36935 ft | 417 kts | 207° |
| 2026-05-04 13:16 | 46.11831 | 2.01793 | 36943 ft | 416 kts | 215° |
| 2026-05-04 13:17 | 46.07115 | 1.96971 | 36955 ft | 416 kts | 215° |
| 2026-05-04 13:17 | 46.02381 | 1.92169 | 36942 ft | 416 kts | 215° |
| 2026-05-04 13:18 | 45.97636 | 1.87396 | 36943 ft | 416 kts | 215° |
| 2026-05-04 13:18 | 45.92923 | 1.82677 | 36940 ft | 415 kts | 215° |
| 2026-05-04 13:19 | 45.88181 | 1.77940 | 36940 ft | 414 kts | 215° |
| 2026-05-04 13:19 | 45.83448 | 1.73223 | 36947 ft | 414 kts | 215° |
| 2026-05-04 13:20 | 45.78713 | 1.68512 | 36940 ft | 414 kts | 215° |
| 2026-05-04 13:20 | 45.73980 | 1.63813 | 36932 ft | 413 kts | 214° |
| 2026-05-04 13:21 | 45.69255 | 1.59131 | 36937 ft | 413 kts | 214° |
| 2026-05-04 13:21 | 45.64561 | 1.54491 | 36944 ft | 413 kts | 214° |
| 2026-05-04 13:22 | 45.59829 | 1.49821 | 36940 ft | 413 kts | 214° |
| 2026-05-04 13:22 | 45.55088 | 1.45151 | 36931 ft | 414 kts | 214° |
| 2026-05-04 13:23 | 45.50335 | 1.40483 | 36933 ft | 414 kts | 213° |
| 2026-05-04 13:23 | 45.45152 | 1.36873 | 36922 ft | 416 kts | 199° |
| 2026-05-04 13:24 | 45.39507 | 1.34951 | 36920 ft | 418 kts | 194° |
| 2026-05-04 13:24 | 45.33860 | 1.33170 | 36920 ft | 418 kts | 194° |
| 2026-05-04 13:25 | 45.25342 | 1.30440 | 36912 ft | 418 kts | 195° |
| 2026-05-04 13:25 | 45.19662 | 1.28605 | 36915 ft | 419 kts | 195° |
| 2026-05-04 13:26 | 45.13984 | 1.26773 | 36911 ft | 418 kts | 195° |
| 2026-05-04 13:26 | 45.08309 | 1.24945 | 36908 ft | 418 kts | 195° |
| 2026-05-04 13:27 | 45.02643 | 1.23125 | 36922 ft | 417 kts | 195° |
| 2026-05-04 13:27 | 44.96983 | 1.21309 | 36900 ft | 417 kts | 195° |
| 2026-05-04 13:28 | 44.91329 | 1.19500 | 36914 ft | 416 kts | 195° |
| 2026-05-04 13:28 | 44.85725 | 1.17710 | 36915 ft | 415 kts | 195° |
| 2026-05-04 13:29 | 44.80094 | 1.15915 | 36915 ft | 414 kts | 194° |
| 2026-05-04 13:29 | 44.74461 | 1.14123 | 36932 ft | 414 kts | 195° |
| 2026-05-04 13:30 | 44.68834 | 1.12336 | 36921 ft | 415 kts | 195° |
| 2026-05-04 13:30 | 44.63230 | 1.10560 | 36920 ft | 415 kts | 194° |
| 2026-05-04 13:31 | 44.57584 | 1.08774 | 36931 ft | 417 kts | 195° |
| 2026-05-04 13:31 | 44.51902 | 1.06980 | 36917 ft | 419 kts | 195° |
| 2026-05-04 13:32 | 44.46213 | 1.05189 | 36911 ft | 419 kts | 195° |
| 2026-05-04 13:32 | 44.40523 | 1.03401 | 36907 ft | 419 kts | 195° |
| 2026-05-04 13:33 | 44.34837 | 1.01617 | 36913 ft | 419 kts | 195° |
| 2026-05-04 13:33 | 44.29147 | 0.99835 | 36926 ft | 418 kts | 195° |
| 2026-05-04 13:34 | 44.23460 | 0.98058 | 36920 ft | 418 kts | 195° |
| 2026-05-04 13:34 | 44.17777 | 0.96286 | 36928 ft | 419 kts | 195° |
| 2026-05-04 13:35 | 44.09272 | 0.93639 | 36921 ft | 419 kts | 195° |
| 2026-05-04 13:36 | 44.03583 | 0.91874 | 36914 ft | 419 kts | 195° |
| 2026-05-04 13:36 | 43.97906 | 0.90115 | 36927 ft | 418 kts | 195° |
| 2026-05-04 13:37 | 43.92215 | 0.88355 | 36917 ft | 418 kts | 195° |
| 2026-05-04 13:37 | 43.86536 | 0.86640 | 36924 ft | 418 kts | 194° |
| 2026-05-04 13:38 | 43.80824 | 0.85108 | 36927 ft | 418 kts | 194° |
| 2026-05-04 13:38 | 43.76080 | 0.83865 | 36918 ft | 417 kts | 194° |
| 2026-05-04 13:39 | 43.70380 | 0.82360 | 36923 ft | 416 kts | 194° |
| 2026-05-04 13:39 | 43.64697 | 0.80848 | 36927 ft | 415 kts | 194° |
| 2026-05-04 13:40 | 43.59067 | 0.79349 | 36931 ft | 414 kts | 194° |
| 2026-05-04 13:40 | 43.53412 | 0.77844 | 36924 ft | 413 kts | 194° |
| 2026-05-04 13:41 | 43.47769 | 0.76346 | 36953 ft | 412 kts | 194° |
| 2026-05-04 13:41 | 43.42134 | 0.74852 | 36920 ft | 412 kts | 194° |
| 2026-05-04 13:42 | 43.33701 | 0.72623 | 36928 ft | 411 kts | 194° |
| 2026-05-04 13:42 | 43.28091 | 0.71143 | 36931 ft | 410 kts | 194° |
| 2026-05-04 13:43 | 43.22483 | 0.69667 | 36914 ft | 410 kts | 194° |
| 2026-05-04 13:43 | 43.16881 | 0.68195 | 36927 ft | 409 kts | 194° |
| 2026-05-04 13:44 | 43.11293 | 0.66730 | 36931 ft | 409 kts | 194° |
| 2026-05-04 13:44 | 43.05737 | 0.65275 | 36920 ft | 409 kts | 194° |
| 2026-05-04 13:45 | 43.00135 | 0.63811 | 36927 ft | 408 kts | 194° |
| 2026-05-04 13:45 | 42.94540 | 0.62352 | 36935 ft | 409 kts | 195° |
| 2026-05-04 13:46 | 42.88944 | 0.60895 | 36926 ft | 409 kts | 194° |
| 2026-05-04 13:46 | 42.83366 | 0.59445 | 36937 ft | 407 kts | 195° |
| 2026-05-04 13:47 | 42.77835 | 0.58010 | 36937 ft | 407 kts | 195° |
| 2026-05-04 13:47 | 42.72263 | 0.56563 | 36938 ft | 408 kts | 194° |
| 2026-05-04 13:48 | 42.66852 | 0.54347 | 36934 ft | 406 kts | 207° |
| 2026-05-04 13:48 | 42.61748 | 0.51020 | 36972 ft | 405 kts | 207° |
| 2026-05-04 13:49 | 42.56626 | 0.47702 | 36922 ft | 410 kts | 207° |
| 2026-05-04 13:49 | 42.51445 | 0.44385 | 36951 ft | 413 kts | 207° |
| 2026-05-04 13:50 | 42.46242 | 0.41069 | 36911 ft | 410 kts | 207° |
| 2026-05-04 13:50 | 42.41146 | 0.37830 | 36960 ft | 404 kts | 207° |
| 2026-05-04 13:51 | 42.36092 | 0.34625 | 36930 ft | 399 kts | 207° |
| 2026-05-04 13:51 | 42.31024 | 0.31413 | 36942 ft | 405 kts | 207° |
| 2026-05-04 13:52 | 42.23292 | 0.26523 | 36927 ft | 411 kts | 207° |
| 2026-05-04 13:53 | 42.18090 | 0.23243 | 36913 ft | 412 kts | 207° |
| 2026-05-04 13:53 | 42.12951 | 0.20007 | 36913 ft | 404 kts | 207° |
| 2026-05-04 13:54 | 42.05210 | 0.15713 | 36916 ft | 406 kts | 198° |
| 2026-05-04 13:55 | 41.96715 | 0.14245 | 36907 ft | 410 kts | 191° |
| 2026-05-04 13:55 | 41.88198 | 0.13008 | 36917 ft | 411 kts | 191° |
| 2026-05-04 13:56 | 41.82515 | 0.12162 | 36910 ft | 411 kts | 191° |
| 2026-05-04 13:57 | 41.74026 | 0.10893 | 36914 ft | 411 kts | 191° |
| 2026-05-04 13:58 | 41.62644 | 0.09196 | 36903 ft | 412 kts | 191° |
| 2026-05-04 13:58 | 41.54080 | 0.07924 | 36895 ft | 413 kts | 192° |
| 2026-05-04 13:59 | 41.48359 | 0.07076 | 36899 ft | 413 kts | 192° |
| 2026-05-04 14:00 | 41.39812 | 0.05812 | 36901 ft | 414 kts | 192° |
| 2026-05-04 14:00 | 41.31200 | 0.04542 | 36891 ft | 414 kts | 192° |
| 2026-05-04 14:01 | 41.25473 | 0.03700 | 36892 ft | 414 kts | 192° |
| 2026-05-04 14:02 | 41.16902 | 0.02441 | 36894 ft | 413 kts | 192° |
| 2026-05-04 14:02 | 41.11235 | 0.01611 | 36873 ft | 412 kts | 192° |
| 2026-05-04 14:03 | 41.05534 | 0.00779 | 36905 ft | 412 kts | 192° |
| 2026-05-04 14:03 | 40.99830 | -0.00049 | 36897 ft | 413 kts | 192° |
| 2026-05-04 14:04 | 40.91253 | -0.01292 | 36901 ft | 413 kts | 192° |
| 2026-05-04 14:04 | 40.85550 | -0.02117 | 36886 ft | 412 kts | 192° |
| 2026-05-04 14:05 | 40.76988 | -0.03353 | 36899 ft | 413 kts | 192° |
| 2026-05-04 14:06 | 40.71268 | -0.04178 | 36899 ft | 413 kts | 192° |
| 2026-05-04 14:06 | 40.65547 | -0.05001 | 36903 ft | 415 kts | 192° |
| 2026-05-04 14:07 | 40.59825 | -0.05823 | 36903 ft | 416 kts | 192° |
| 2026-05-04 14:07 | 40.54122 | -0.06971 | 36911 ft | 409 kts | 201° |
| 2026-05-04 14:08 | 40.48691 | -0.09174 | 36940 ft | 408 kts | 202° |
| 2026-05-04 14:08 | 40.43258 | -0.11349 | 36946 ft | 407 kts | 202° |
| 2026-05-04 14:09 | 40.35115 | -0.14561 | 36959 ft | 407 kts | 201° |
| 2026-05-04 14:10 | 40.27010 | -0.17745 | 36948 ft | 406 kts | 201° |
| 2026-05-04 14:10 | 40.21606 | -0.19873 | 36949 ft | 405 kts | 202° |
| 2026-05-04 14:11 | 40.16210 | -0.22008 | 36956 ft | 405 kts | 202° |
| 2026-05-04 14:11 | 40.08103 | -0.25209 | 36933 ft | 406 kts | 202° |
| 2026-05-04 14:12 | 40.02680 | -0.27346 | 36883 ft | 407 kts | 202° |
| 2026-05-04 14:13 | 39.94527 | -0.30514 | 36909 ft | 407 kts | 201° |
| 2026-05-04 14:13 | 39.89124 | -0.32590 | 36738 ft | 410 kts | 201° |
| 2026-05-04 14:13 | 39.86380 | -0.33653 | 36320 ft | 410 kts | 201° |
| 2026-05-04 14:14 | 39.83649 | -0.34716 | 35633 ft | 409 kts | 202° |
| 2026-05-04 14:14 | 39.78194 | -0.36844 | 34346 ft | 409 kts | 201° |
| 2026-05-04 14:14 | 39.75465 | -0.37904 | 33663 ft | 409 kts | 201° |
| 2026-05-04 14:15 | 39.70024 | -0.40015 | 32179 ft | 410 kts | 201° |
| 2026-05-04 14:15 | 39.64543 | -0.42145 | 30720 ft | 412 kts | 201° |
| 2026-05-04 14:16 | 39.59026 | -0.44276 | 29052 ft | 415 kts | 201° |
| 2026-05-04 14:16 | 39.56271 | -0.45338 | 28417 ft | 409 kts | 201° |
| 2026-05-04 14:17 | 39.50877 | -0.47417 | 27244 ft | 399 kts | 201° |
| 2026-05-04 14:17 | 39.48229 | -0.48437 | 26669 ft | 395 kts | 201° |
| 2026-05-04 14:17 | 39.42980 | -0.50344 | 25565 ft | 387 kts | 200° |
| 2026-05-04 14:18 | 39.40388 | -0.51261 | 25033 ft | 384 kts | 200° |
| 2026-05-04 14:18 | 39.35311 | -0.53056 | 23964 ft | 378 kts | 200° |
| 2026-05-04 14:19 | 39.30273 | -0.54847 | 22792 ft | 373 kts | 200° |
| 2026-05-04 14:19 | 39.27779 | -0.55736 | 22224 ft | 370 kts | 200° |
| 2026-05-04 14:19 | 39.25314 | -0.56613 | 21680 ft | 366 kts | 200° |
| 2026-05-04 14:19 | 39.22866 | -0.57484 | 21158 ft | 363 kts | 200° |
| 2026-05-04 14:20 | 39.20443 | -0.58346 | 20646 ft | 360 kts | 200° |
| 2026-05-04 14:20 | 39.18038 | -0.59201 | 20137 ft | 357 kts | 200° |
| 2026-05-04 14:20 | 39.15657 | -0.60047 | 19624 ft | 353 kts | 200° |
| 2026-05-04 14:21 | 39.10959 | -0.61714 | 18630 ft | 349 kts | 200° |
| 2026-05-04 14:21 | 39.08589 | -0.62558 | 18128 ft | 360 kts | 200° |
| 2026-05-04 14:21 | 39.06144 | -0.63425 | 17560 ft | 365 kts | 200° |
| 2026-05-04 14:21 | 39.03703 | -0.64289 | 17005 ft | 363 kts | 200° |
| 2026-05-04 14:22 | 39.01276 | -0.65148 | 16470 ft | 360 kts | 200° |
| 2026-05-04 14:22 | 38.98872 | -0.65997 | 15960 ft | 356 kts | 200° |
| 2026-05-04 14:22 | 38.96498 | -0.66835 | 15458 ft | 353 kts | 200° |
| 2026-05-04 14:22 | 38.94138 | -0.67668 | 14969 ft | 350 kts | 199° |
| 2026-05-04 14:23 | 38.89494 | -0.69306 | 13988 ft | 346 kts | 199° |
| 2026-05-04 14:23 | 38.87155 | -0.70130 | 13448 ft | 343 kts | 199° |
| 2026-05-04 14:23 | 38.84894 | -0.70927 | 12957 ft | 341 kts | 199° |
| 2026-05-04 14:24 | 38.82616 | -0.71729 | 12456 ft | 339 kts | 199° |
| 2026-05-04 14:24 | 38.80349 | -0.72525 | 11975 ft | 336 kts | 199° |
| 2026-05-04 14:24 | 38.78100 | -0.73316 | 11483 ft | 334 kts | 199° |
| 2026-05-04 14:24 | 38.75868 | -0.74093 | 11044 ft | 329 kts | 199° |
| 2026-05-04 14:25 | 38.73703 | -0.74855 | 10934 ft | 317 kts | 199° |
| 2026-05-04 14:25 | 38.69581 | -0.76300 | 10645 ft | 297 kts | 199° |
| 2026-05-04 14:25 | 38.67617 | -0.76988 | 10523 ft | 288 kts | 200° |
| 2026-05-04 14:26 | 38.66349 | -0.77432 | 10440 ft | 282 kts | 200° |
| 2026-05-04 14:26 | 38.64480 | -0.78087 | 10312 ft | 274 kts | 200° |
| 2026-05-04 14:26 | 38.62669 | -0.78722 | 10205 ft | 266 kts | 200° |
| 2026-05-04 14:26 | 38.60911 | -0.79338 | 10102 ft | 258 kts | 200° |
| 2026-05-04 14:27 | 38.59202 | -0.79936 | 9994 ft | 251 kts | 200° |
| 2026-05-04 14:27 | 38.57545 | -0.80516 | 9895 ft | 243 kts | 200° |
| 2026-05-04 14:27 | 38.55936 | -0.81076 | 9793 ft | 236 kts | 200° |
| 2026-05-04 14:27 | 38.54384 | -0.81681 | 9677 ft | 227 kts | 211° |
| 2026-05-04 14:28 | 38.53192 | -0.82856 | 9605 ft | 210 kts | 227° |
| 2026-05-04 14:28 | 38.52207 | -0.84194 | 9358 ft | 202 kts | 233° |
| 2026-05-04 14:28 | 38.51299 | -0.85547 | 9141 ft | 201 kts | 231° |
| 2026-05-04 14:28 | 38.50341 | -0.86847 | 8925 ft | 200 kts | 228° |
| 2026-05-04 14:29 | 38.48296 | -0.89264 | 8480 ft | 200 kts | 224° |
| 2026-05-04 14:29 | 38.46110 | -0.91433 | 8050 ft | 200 kts | 219° |
| 2026-05-04 14:30 | 38.44962 | -0.92431 | 7833 ft | 200 kts | 217° |
| 2026-05-04 14:30 | 38.43778 | -0.93369 | 7621 ft | 200 kts | 214° |
| 2026-05-04 14:30 | 38.41337 | -0.95097 | 7200 ft | 201 kts | 211° |
| 2026-05-04 14:31 | 38.40073 | -0.95872 | 6979 ft | 202 kts | 208° |
| 2026-05-04 14:31 | 38.37459 | -0.97202 | 6570 ft | 203 kts | 200° |
| 2026-05-04 14:32 | 38.34708 | -0.96567 | 6177 ft | 216 kts | 146° |
| 2026-05-04 14:32 | 38.33843 | -0.95001 | 5891 ft | 226 kts | 107° |
| 2026-05-04 14:32 | 38.33520 | -0.93012 | 5584 ft | 232 kts | 103° |
| 2026-05-04 14:32 | 38.33206 | -0.90999 | 5279 ft | 232 kts | 103° |
| 2026-05-04 14:33 | 38.32906 | -0.88991 | 4978 ft | 228 kts | 101° |
| 2026-05-04 14:33 | 38.32624 | -0.87035 | 4684 ft | 222 kts | 101° |
| 2026-05-04 14:33 | 38.32351 | -0.85116 | 4399 ft | 219 kts | 102° |
| 2026-05-04 14:33 | 38.32081 | -0.83217 | 4090 ft | 216 kts | 103° |
| 2026-05-04 14:34 | 38.31817 | -0.81351 | 3833 ft | 214 kts | 103° |
| 2026-05-04 14:34 | 38.31556 | -0.79516 | 3545 ft | 205 kts | 102° |
| 2026-05-04 14:34 | 38.31311 | -0.77789 | 3282 ft | 196 kts | 103° |
| 2026-05-04 14:34 | 38.31075 | -0.76123 | 3059 ft | 186 kts | 101° |
| 2026-05-04 14:35 | 38.30848 | -0.74526 | 2796 ft | 178 kts | 102° |
| 2026-05-04 14:35 | 38.30637 | -0.73025 | 2556 ft | 171 kts | 102° |
| 2026-05-04 14:35 | 38.30432 | -0.71574 | 2334 ft | 163 kts | 102° |
| 2026-05-04 14:35 | 38.30233 | -0.70176 | 2148 ft | 160 kts | 102° |
| 2026-05-04 14:36 | 38.30036 | -0.68771 | 1951 ft | 162 kts | 103° |
| 2026-05-04 14:36 | 38.29837 | -0.67354 | 1740 ft | 161 kts | 104° |
| 2026-05-04 14:36 | 38.29642 | -0.65965 | 1516 ft | 157 kts | 102° |
| 2026-05-04 14:36 | 38.29447 | -0.64589 | 1292 ft | 159 kts | 103° |
| 2026-05-04 14:37 | 38.29251 | -0.63191 | 1086 ft | 161 kts | 101° |
| 2026-05-04 14:37 | 38.29058 | -0.61799 | 839 ft | 157 kts | 106° |
| 2026-05-04 14:37 | 38.28866 | -0.60452 | 670 ft | 158 kts | 102° |
| 2026-05-04 14:37 | 38.28675 | -0.59083 | 456 ft | 156 kts | 105° |
| 2026-05-04 14:38 | 38.28488 | -0.57735 | 253 ft | 154 kts | 104° |
| 2026-05-04 14:38 | 38.28303 | -0.56427 | 119 ft | 137 kts | 102° |
| 2026-05-04 14:38 | 38.28160 | -0.55418 | 85 ft | 95 kts | 99° |
| 2026-05-04 14:38 | 38.28134 | -0.54936 | 70 ft | 33 kts | 77° |
| 2026-05-04 14:39 | 38.28208 | -0.54714 | 60 ft | 12 kts | 27° |
| 2026-05-04 14:39 | 38.28251 | -0.54786 | 64 ft | 12 kts | 280° |
| 2026-05-04 14:39 | 38.28262 | -0.54897 | 67 ft | 13 kts | 273° |
| 2026-05-04 14:40 | 38.28297 | -0.55119 | 68 ft | 13 kts | 283° |
| 2026-05-04 14:40 | 38.28313 | -0.55227 | 86 ft | 12 kts | 279° |
| 2026-05-04 14:40 | 38.28327 | -0.55328 | 90 ft | 11 kts | 279° |
| 2026-05-04 14:40 | 38.28340 | -0.55428 | 92 ft | 11 kts | 279° |
| 2026-05-04 14:41 | 38.28352 | -0.55523 | 94 ft | 11 kts | 279° |
| 2026-05-04 14:41 | 38.28366 | -0.55617 | 95 ft | 11 kts | 280° |
| 2026-05-04 14:41 | 38.28391 | -0.55798 | 95 ft | 10 kts | 281° |
| 2026-05-04 14:42 | 38.28420 | -0.55992 | 96 ft | 12 kts | 280° |
| 2026-05-04 14:42 | 38.28447 | -0.56035 | 96 ft | 4 kts | 358° |
| 2026-05-04 14:42 | 38.28488 | -0.56019 | 99 ft | 8 kts | 38° |
| 2026-05-04 14:43 | 38.28469 | -0.55969 | 99 ft | 6 kts | 179° |
| 2026-05-04 14:43 | 38.28423 | -0.55970 | 97 ft | 8 kts | 149° |
| 2026-05-04 14:43 | 38.28408 | -0.55895 | 96 ft | 10 kts | 84° |
| 2026-05-04 14:43 | 38.28454 | -0.55866 | 96 ft | 7 kts | 9° |
| 2026-05-04 14:44 | 38.28473 | -0.55862 | 96 ft | 0 kts | 10° |